createdAt,value
2023-03-07T00:01:11.158Z,82.32
2023-03-07T00:03:43.401Z,81.88
2023-03-07T00:06:14.220Z,81.93
2023-03-07T00:08:41.279Z,81.76
2023-03-07T00:11:10.487Z,81.74
2023-03-07T00:13:39.668Z,81.59
2023-03-07T00:16:09.195Z,81.51
2023-03-07T00:18:37.763Z,81.46
2023-03-07T00:21:10.331Z,81.60
2023-03-07T00:23:39.425Z,81.46
2023-03-07T00:26:19.682Z,81.38
2023-03-07T00:28:49.717Z,81.62
2023-03-07T00:31:38.272Z,81.62
2023-03-07T00:34:08.680Z,81.53
2023-03-07T00:36:39.314Z,81.68
2023-03-07T00:39:26.840Z,81.79
2023-03-07T00:42:07.923Z,81.59
2023-03-07T00:44:35.562Z,81.40
2023-03-07T00:47:03.384Z,81.32
2023-03-07T00:49:31.621Z,81.14
2023-03-07T00:51:59.393Z,81.08
2023-03-07T00:54:27.775Z,80.86
2023-03-07T00:56:55.835Z,80.72
2023-03-07T00:59:23.094Z,80.78
2023-03-07T01:02:01.923Z,80.60
2023-03-07T01:04:29.385Z,80.60
2023-03-07T01:06:56.727Z,80.33
2023-03-07T01:09:24.907Z,79.96
2023-03-07T01:11:53.442Z,79.76
2023-03-07T01:14:20.635Z,79.78
2023-03-07T01:16:48.137Z,79.56
2023-03-07T01:19:15.757Z,79.45
2023-03-07T01:21:44.641Z,79.05
2023-03-07T01:24:16.042Z,78.75
2023-03-07T01:26:46.682Z,78.70
2023-03-07T01:29:14.606Z,78.81
2023-03-07T01:31:42.623Z,78.90
2023-03-07T01:34:10.025Z,78.56
2023-03-07T01:36:41.109Z,78.89
2023-03-07T01:39:10.709Z,78.85
2023-03-07T01:41:42.136Z,78.87
2023-03-07T01:44:21.101Z,78.84
2023-03-07T01:46:52.907Z,79.02
2023-03-07T01:49:33.934Z,78.96
2023-03-07T01:52:16.218Z,79.16
2023-03-07T01:54:53.225Z,79.25
2023-03-07T01:57:24.813Z,79.28
2023-03-07T01:59:59.040Z,79.36
2023-03-07T02:02:27.729Z,79.41
2023-03-07T02:05:01.475Z,79.34
2023-03-07T02:07:34.925Z,79.33
2023-03-07T02:10:03.342Z,79.43
2023-03-07T02:12:33.985Z,79.67
2023-03-07T02:15:01.733Z,79.52
2023-03-07T02:17:32.848Z,79.78
2023-03-07T02:20:11.984Z,79.84
2023-03-07T02:22:43.326Z,79.66
2023-03-07T02:25:19.212Z,80.18
2023-03-07T02:27:51.600Z,80.30
2023-03-07T02:30:19.326Z,80.50
2023-03-07T02:32:49.561Z,80.90
2023-03-07T02:35:21.219Z,80.97
2023-03-07T02:37:53.781Z,81.19
2023-03-07T02:40:25.024Z,81.34
2023-03-07T02:43:13.256Z,81.29
2023-03-07T02:45:44.649Z,81.10
2023-03-07T02:48:12.293Z,81.45
2023-03-07T02:50:41.893Z,81.54
2023-03-07T02:53:09.664Z,81.51
2023-03-07T02:55:37.686Z,81.77
2023-03-07T02:58:05.181Z,82.05
2023-03-07T03:00:32.740Z,82.19
2023-03-07T03:03:00.202Z,82.56
2023-03-07T03:05:30.452Z,82.34
2023-03-07T03:07:57.932Z,82.91
2023-03-07T03:10:44.094Z,82.76
2023-03-07T03:13:21.720Z,83.04
2023-03-07T03:15:49.805Z,82.82
2023-03-07T03:18:19.978Z,82.88
2023-03-07T03:21:12.601Z,83.13
2023-03-07T03:23:41.105Z,83.42
2023-03-07T03:26:11.890Z,83.38
2023-03-07T03:28:40.421Z,83.45
2023-03-07T03:31:10.487Z,83.39
2023-03-07T03:33:40.041Z,83.90
2023-03-07T03:36:12.553Z,83.84
2023-03-07T03:38:40.498Z,83.85
2023-03-07T03:41:13.077Z,83.85
2023-03-07T03:43:41.137Z,83.86
2023-03-07T03:46:08.412Z,83.87
2023-03-07T03:48:36.869Z,83.86
2023-03-07T03:51:06.276Z,83.81
2023-03-07T03:53:38.994Z,83.81
2023-03-07T03:56:10.402Z,83.84
2023-03-07T03:58:59.182Z,83.97
2023-03-07T04:01:30.208Z,83.51
2023-03-07T04:04:07.592Z,83.51
2023-03-07T04:06:55.219Z,83.56
2023-03-07T04:09:22.581Z,83.60
2023-03-07T04:11:52.179Z,83.80
2023-03-07T04:14:23.234Z,83.46
2023-03-07T04:16:52.321Z,83.80
2023-03-07T04:19:21.984Z,83.70
2023-03-07T04:21:51.891Z,83.25
2023-03-07T04:24:19.199Z,82.94
2023-03-07T04:26:46.702Z,83.39
2023-03-07T04:29:16.618Z,83.81
2023-03-07T04:31:51.124Z,83.74
2023-03-07T04:34:18.751Z,84.15
2023-03-07T04:36:45.912Z,83.90
2023-03-07T04:39:14.280Z,84.37
2023-03-07T04:41:42.225Z,83.99
2023-03-07T04:44:18.850Z,84.25
2023-03-07T04:46:49.484Z,84.18
2023-03-07T04:49:20.393Z,84.30
2023-03-07T04:51:48.885Z,84.76
2023-03-07T04:54:17.765Z,84.86
2023-03-07T04:56:47.986Z,84.95
2023-03-07T04:59:15.572Z,85.14
2023-03-07T05:01:45.567Z,85.26
2023-03-07T05:04:33.302Z,85.59
2023-03-07T05:07:04.031Z,85.37
2023-03-07T05:09:51.782Z,85.58
2023-03-07T05:12:19.733Z,85.63
2023-03-07T05:14:49.349Z,86.19
2023-03-07T05:17:20.284Z,85.69
2023-03-07T05:19:47.622Z,86.23
2023-03-07T05:22:15.402Z,86.14
2023-03-07T05:24:43.903Z,86.12
2023-03-07T05:27:14.718Z,86.16
2023-03-07T05:29:42.075Z,86.37
2023-03-07T05:32:11.057Z,86.61
2023-03-07T05:34:39.494Z,86.24
2023-03-07T05:37:07.115Z,86.78
2023-03-07T05:39:34.802Z,86.90
2023-03-07T05:42:02.221Z,87.33
2023-03-07T05:44:33.999Z,87.54
2023-03-07T05:47:01.857Z,87.69
2023-03-07T05:49:29.623Z,87.21
2023-03-07T05:51:56.980Z,87.55
2023-03-07T05:54:24.500Z,87.59
2023-03-07T05:56:51.791Z,87.77
2023-03-07T05:59:19.851Z,87.92
2023-03-07T06:02:01.592Z,87.91
2023-03-07T06:04:29.314Z,88.40
2023-03-07T06:06:59.861Z,88.64
2023-03-07T06:09:28.470Z,88.21
2023-03-07T06:11:56.316Z,88.01
2023-03-07T06:14:26.363Z,87.81
2023-03-07T06:16:53.686Z,87.92
2023-03-07T06:19:21.165Z,88.47
2023-03-07T06:21:49.507Z,87.66
2023-03-07T06:24:17.025Z,87.64
2023-03-07T06:26:45.157Z,87.71
2023-03-07T06:29:13.121Z,87.70
2023-03-07T06:31:40.485Z,87.46
2023-03-07T06:34:08.675Z,87.61
2023-03-07T06:36:36.000Z,87.38
2023-03-07T06:39:04.306Z,87.32
2023-03-07T06:41:31.672Z,87.30
2023-03-07T06:44:00.682Z,87.22
2023-03-07T06:46:30.583Z,87.00
2023-03-07T06:49:03.747Z,86.71
2023-03-07T06:51:31.199Z,86.85
2023-03-07T06:53:59.104Z,87.12
2023-03-07T06:56:26.722Z,87.13
2023-03-07T06:58:53.871Z,87.03
2023-03-07T07:01:25.165Z,86.81
2023-03-07T07:03:56.272Z,86.48
2023-03-07T07:06:23.700Z,86.22
2023-03-07T07:08:51.001Z,85.90
2023-03-07T07:11:18.471Z,85.51
2023-03-07T07:13:46.838Z,84.90
2023-03-07T07:16:17.112Z,84.33
2023-03-07T07:18:45.007Z,83.82
2023-03-07T07:21:15.213Z,83.44
2023-03-07T07:23:45.339Z,83.34
2023-03-07T07:26:24.534Z,83.54
2023-03-07T07:28:52.333Z,83.33
2023-03-07T07:31:19.612Z,83.23
2023-03-07T07:33:47.882Z,83.14
2023-03-07T07:36:15.825Z,82.55
2023-03-07T07:38:43.247Z,82.29
2023-03-07T07:41:10.438Z,82.08
2023-03-07T07:43:38.110Z,81.54
2023-03-07T07:46:10.908Z,81.68
2023-03-07T07:48:38.901Z,81.72
2023-03-07T07:51:06.987Z,81.56
2023-03-07T07:53:36.846Z,79.88
2023-03-07T07:56:04.750Z,76.81
2023-03-07T07:58:32.679Z,74.78
2023-03-07T08:01:02.177Z,72.04
2023-03-07T08:03:29.880Z,70.43
2023-03-07T08:06:21.710Z,69.64
2023-03-07T08:08:50.156Z,67.50
2023-03-07T08:11:17.406Z,65.21
2023-03-07T08:13:44.929Z,64.74
2023-03-07T08:16:17.108Z,63.12
2023-03-07T08:18:48.841Z,59.25
2023-03-07T08:21:16.104Z,58.24
2023-03-07T08:23:43.419Z,57.62
2023-03-07T08:26:13.367Z,55.55
2023-03-07T08:28:41.346Z,54.02
2023-03-07T08:31:12.188Z,54.28
2023-03-07T08:33:40.794Z,54.76
2023-03-07T08:36:09.280Z,53.97
2023-03-07T08:38:37.138Z,54.58
2023-03-07T08:41:05.706Z,54.89
2023-03-07T08:43:37.679Z,54.52
2023-03-07T08:46:25.034Z,52.38
2023-03-07T08:48:52.373Z,51.81
2023-03-07T08:51:20.849Z,51.57
2023-03-07T08:53:48.573Z,50.43
2023-03-07T08:56:18.705Z,50.63
2023-03-07T08:58:48.841Z,49.79
2023-03-07T09:01:16.013Z,49.19
2023-03-07T09:03:44.104Z,48.06
2023-03-07T09:06:19.045Z,48.04
2023-03-07T09:08:48.633Z,48.69
2023-03-07T09:11:19.630Z,46.56
2023-03-07T09:13:52.315Z,46.81
2023-03-07T09:16:20.505Z,47.64
2023-03-07T09:18:48.032Z,48.29
2023-03-07T09:21:15.335Z,48.27
2023-03-07T09:23:43.622Z,48.12
2023-03-07T09:26:11.580Z,48.60
2023-03-07T09:28:38.775Z,49.95
2023-03-07T09:31:11.966Z,49.15
2023-03-07T09:33:45.695Z,47.90
2023-03-07T09:36:16.173Z,47.15
2023-03-07T09:38:43.420Z,47.66
2023-03-07T09:41:24.471Z,48.87
2023-03-07T09:43:58.975Z,50.65
2023-03-07T09:46:56.742Z,52.00
2023-03-07T09:49:31.200Z,53.21
2023-03-07T09:52:04.358Z,54.26
2023-03-07T09:54:40.527Z,54.18
2023-03-07T09:57:16.755Z,53.78
2023-03-07T09:59:47.703Z,53.05
2023-03-07T10:02:21.852Z,51.98
2023-03-07T10:04:57.143Z,52.66
2023-03-07T10:07:27.817Z,53.66
2023-03-07T10:10:01.452Z,54.01
2023-03-07T10:12:51.636Z,54.44
2023-03-07T10:15:30.509Z,55.97
2023-03-07T10:18:51.965Z,57.21
2023-03-07T10:21:32.894Z,58.75
2023-03-07T10:24:29.343Z,60.21
2023-03-07T10:27:05.035Z,62.35
2023-03-07T10:29:49.133Z,63.68
2023-03-07T10:32:24.312Z,64.99
2023-03-07T10:34:59.777Z,65.60
2023-03-07T10:37:37.124Z,66.71
2023-03-07T10:40:05.229Z,67.54
2023-03-07T10:42:39.850Z,69.22
2023-03-07T10:45:09.140Z,69.13
2023-03-07T10:47:37.005Z,70.07
2023-03-07T10:50:24.906Z,70.94
2023-03-07T10:52:55.358Z,71.14
2023-03-07T10:55:38.430Z,71.31
2023-03-07T10:58:20.889Z,72.04
2023-03-07T11:01:00.408Z,72.52
2023-03-07T11:03:49.626Z,72.42
2023-03-07T11:06:53.280Z,71.64
2023-03-07T11:09:24.609Z,71.56
2023-03-07T11:11:56.103Z,71.09
2023-03-07T11:14:51.367Z,70.82
2023-03-07T11:17:23.810Z,70.65
2023-03-07T11:20:22.784Z,70.23
2023-03-07T11:22:50.512Z,70.71
2023-03-07T11:25:26.027Z,70.51
2023-03-07T11:27:58.017Z,70.57
2023-03-07T11:30:46.939Z,70.80
2023-03-07T11:33:24.322Z,70.57
2023-03-07T11:36:03.199Z,70.44
2023-03-07T11:38:42.782Z,70.27
2023-03-07T11:41:32.935Z,70.13
2023-03-07T11:44:13.145Z,70.34
2023-03-07T11:47:18.475Z,70.12
2023-03-07T11:50:22.552Z,70.44
2023-03-07T11:53:30.641Z,70.11
2023-03-07T11:56:31.049Z,69.51
2023-03-07T11:59:52.242Z,69.42
2023-03-07T12:02:49.274Z,69.23
2023-03-07T12:05:38.122Z,68.63
2023-03-07T12:08:32.524Z,68.44
2023-03-07T12:11:10.832Z,67.51
2023-03-07T12:13:47.822Z,67.05
2023-03-07T12:16:50.294Z,67.32
2023-03-07T12:20:02.731Z,67.35
2023-03-07T12:22:37.498Z,66.45
2023-03-07T12:25:25.037Z,64.96
2023-03-07T12:28:04.395Z,65.64
2023-03-07T12:30:42.711Z,65.67
2023-03-07T12:33:20.590Z,65.19
2023-03-07T12:35:53.501Z,65.01
2023-03-07T12:38:41.880Z,65.36
2023-03-07T12:41:21.130Z,64.99
2023-03-07T12:43:59.237Z,64.99
2023-03-07T12:46:37.654Z,64.90
2023-03-07T12:49:40.952Z,64.20
2023-03-07T12:52:41.272Z,64.58
2023-03-07T12:55:22.272Z,65.37
2023-03-07T12:58:16.822Z,65.12
2023-03-07T13:01:11.170Z,64.60
2023-03-07T13:03:47.584Z,64.14
2023-03-07T13:06:40.103Z,64.17
2023-03-07T13:09:28.932Z,64.06
2023-03-07T13:12:31.363Z,64.28
2023-03-07T13:15:00.497Z,64.57
2023-03-07T13:17:59.052Z,64.93
2023-03-07T13:20:47.930Z,64.59
2023-03-07T13:23:26.204Z,64.18
2023-03-07T13:26:12.380Z,64.13
2023-03-07T13:28:45.694Z,64.71
2023-03-07T13:31:45.749Z,64.89
2023-03-07T13:34:46.784Z,65.33
2023-03-07T13:37:52.498Z,65.35
2023-03-07T13:40:54.949Z,65.00
2023-03-07T13:44:00.376Z,65.45
2023-03-07T13:47:01.495Z,65.93
2023-03-07T13:49:56.437Z,66.11
2023-03-07T13:52:47.133Z,66.25
2023-03-07T13:55:39.607Z,66.26
2023-03-07T13:58:24.105Z,66.36
2023-03-07T14:00:59.193Z,66.07
2023-03-07T14:03:32.111Z,66.40
2023-03-07T14:06:03.144Z,66.48
2023-03-07T14:08:34.187Z,66.42
2023-03-07T14:11:02.400Z,66.21
2023-03-07T14:13:55.970Z,66.48
2023-03-07T14:16:39.821Z,66.68
2023-03-07T14:19:21.064Z,66.64
2023-03-07T14:21:56.859Z,66.47
2023-03-07T14:24:47.713Z,66.65
2023-03-07T14:27:17.542Z,66.67
2023-03-07T14:29:53.636Z,66.62
2023-03-07T14:32:43.580Z,66.30
2023-03-07T14:35:15.803Z,66.48
2023-03-07T14:37:43.968Z,66.02
2023-03-07T14:40:29.646Z,66.10
2023-03-07T14:43:06.353Z,65.82
2023-03-07T14:45:36.624Z,65.72
2023-03-07T14:48:48.707Z,65.34
2023-03-07T14:51:20.515Z,64.84
2023-03-07T14:53:48.895Z,64.97
2023-03-07T14:56:25.354Z,64.68
2023-03-07T14:58:58.852Z,64.47
2023-03-07T15:01:32.095Z,64.19
2023-03-07T15:03:59.454Z,64.19
2023-03-07T15:06:28.633Z,64.15
2023-03-07T15:08:59.633Z,64.28
2023-03-07T15:11:34.065Z,64.03
2023-03-07T15:14:08.283Z,63.67
2023-03-07T15:16:41.680Z,62.88
2023-03-07T15:19:37.868Z,63.05
2023-03-07T15:22:21.601Z,63.08
2023-03-07T15:24:53.325Z,62.95
2023-03-07T15:27:28.130Z,63.26
2023-03-07T15:30:27.767Z,62.93
2023-03-07T15:33:11.907Z,62.89
2023-03-07T15:35:39.471Z,62.79
2023-03-07T15:38:19.093Z,62.70
2023-03-07T15:40:47.401Z,62.50
2023-03-07T15:43:35.848Z,62.52
2023-03-07T15:46:24.391Z,62.28
2023-03-07T15:49:01.721Z,62.17
2023-03-07T15:51:39.792Z,62.00
2023-03-07T15:54:32.748Z,62.10
2023-03-07T15:57:22.254Z,62.18
2023-03-07T16:00:22.040Z,61.91
2023-03-07T16:03:26.567Z,62.20
2023-03-07T16:05:57.506Z,62.01
2023-03-07T16:08:25.814Z,62.41
2023-03-07T16:11:15.237Z,62.38
2023-03-07T16:13:44.967Z,62.18
2023-03-07T16:16:26.158Z,62.38
2023-03-07T16:19:01.064Z,62.32
2023-03-07T16:21:48.700Z,62.42
2023-03-07T16:24:20.261Z,62.30
2023-03-07T16:27:01.725Z,62.17
2023-03-07T16:29:51.803Z,62.60
2023-03-07T16:32:21.792Z,62.22
2023-03-07T16:34:51.342Z,62.48
2023-03-07T16:37:18.733Z,62.35
2023-03-07T16:39:46.281Z,62.57
2023-03-07T16:42:20.021Z,62.56
2023-03-07T16:44:50.695Z,62.60
2023-03-07T16:47:19.919Z,62.36
2023-03-07T16:49:47.944Z,62.42
2023-03-07T16:52:26.359Z,62.72
2023-03-07T16:54:58.273Z,62.69
2023-03-07T16:57:28.338Z,62.75
2023-03-07T17:00:20.662Z,62.81
2023-03-07T17:03:03.506Z,62.90
2023-03-07T17:05:33.689Z,62.78
2023-03-07T17:08:21.664Z,62.74
2023-03-07T17:10:49.872Z,62.91
2023-03-07T17:13:19.566Z,63.28
2023-03-07T17:15:50.317Z,63.11
2023-03-07T17:18:22.450Z,63.34
2023-03-07T17:20:50.193Z,63.37
2023-03-07T17:23:17.843Z,63.06
2023-03-07T17:25:45.160Z,63.49
2023-03-07T17:28:33.236Z,63.43
2023-03-07T17:31:00.545Z,63.69
2023-03-07T17:33:28.135Z,63.46
2023-03-07T17:36:04.353Z,63.66
2023-03-07T17:38:34.494Z,63.77
2023-03-07T17:41:01.721Z,63.60
2023-03-07T17:43:50.201Z,63.57
2023-03-07T17:46:18.914Z,63.90
2023-03-07T17:48:57.421Z,63.77
2023-03-07T17:51:34.217Z,63.89
2023-03-07T17:54:01.990Z,63.98
2023-03-07T17:56:32.164Z,64.24
2023-03-07T17:59:01.836Z,63.98
2023-03-07T18:01:33.249Z,63.99
2023-03-07T18:04:01.359Z,63.81
2023-03-07T18:06:41.010Z,64.02
2023-03-07T18:09:10.970Z,64.10
2023-03-07T18:11:38.615Z,64.04
2023-03-07T18:14:06.148Z,64.13
2023-03-07T18:16:36.430Z,64.08
2023-03-07T18:19:10.100Z,63.92
2023-03-07T18:21:53.315Z,64.27
2023-03-07T18:24:23.477Z,64.15
2023-03-07T18:26:52.161Z,64.18
2023-03-07T18:29:29.394Z,64.28
2023-03-07T18:31:59.264Z,64.22
2023-03-07T18:34:27.123Z,64.31
2023-03-07T18:36:54.946Z,64.26
2023-03-07T18:39:22.970Z,64.38
2023-03-07T18:41:53.389Z,64.38
2023-03-07T18:44:20.888Z,64.52
2023-03-07T18:46:48.669Z,64.40
2023-03-07T18:49:23.355Z,64.24
2023-03-07T18:51:50.619Z,64.25
2023-03-07T18:54:38.715Z,64.45
2023-03-07T18:57:10.161Z,64.28
2023-03-07T18:59:37.636Z,64.07
2023-03-07T19:02:08.490Z,64.53
2023-03-07T19:04:36.307Z,64.38
2023-03-07T19:07:06.890Z,64.46
2023-03-07T19:09:34.272Z,64.70
2023-03-07T19:12:04.464Z,64.93
2023-03-07T19:14:33.253Z,64.83
2023-03-07T19:17:09.675Z,64.94
2023-03-07T19:19:39.489Z,65.19
2023-03-07T19:22:27.468Z,65.15
2023-03-07T19:24:55.074Z,65.48
2023-03-07T19:27:22.128Z,65.65
2023-03-07T19:29:49.696Z,65.88
2023-03-07T19:32:20.015Z,66.22
2023-03-07T19:34:49.183Z,66.56
2023-03-07T19:37:19.838Z,66.73
2023-03-07T19:39:47.079Z,67.01
2023-03-07T19:42:34.692Z,67.38
2023-03-07T19:45:09.014Z,67.65
2023-03-07T19:47:40.111Z,68.19
2023-03-07T19:50:08.448Z,68.37
2023-03-07T19:52:39.018Z,68.65
2023-03-07T19:55:07.102Z,68.74
2023-03-07T19:57:54.577Z,69.14
2023-03-07T20:00:22.991Z,69.41
2023-03-07T20:02:50.181Z,69.70
2023-03-07T20:05:26.541Z,70.03
2023-03-07T20:08:07.549Z,70.24
2023-03-07T20:10:46.340Z,70.25
2023-03-07T20:13:25.156Z,70.45
2023-03-07T20:16:13.831Z,70.09
2023-03-07T20:18:41.713Z,70.24
2023-03-07T20:21:21.115Z,70.06
2023-03-07T20:23:53.023Z,69.86
2023-03-07T20:26:35.563Z,70.03
2023-03-07T20:29:22.761Z,69.80
2023-03-07T20:32:09.117Z,69.86
2023-03-07T20:34:57.791Z,69.88
2023-03-07T20:37:36.328Z,70.11
2023-03-07T20:40:07.389Z,70.04
2023-03-07T20:42:35.510Z,70.12
2023-03-07T20:45:23.223Z,70.33
2023-03-07T20:48:02.146Z,70.51
2023-03-07T20:50:49.858Z,70.53
2023-03-07T20:53:27.155Z,70.49
2023-03-07T20:56:14.584Z,71.07
2023-03-07T20:58:43.126Z,70.97
2023-03-07T21:01:14.210Z,71.15
2023-03-07T21:03:44.072Z,71.44
2023-03-07T21:06:11.856Z,71.76
2023-03-07T21:08:39.863Z,71.50
2023-03-07T21:11:20.577Z,71.76
2023-03-07T21:13:49.404Z,72.19
2023-03-07T21:16:19.046Z,72.11
2023-03-07T21:18:46.910Z,72.55
2023-03-07T21:21:17.083Z,72.64
2023-03-07T21:24:04.979Z,72.41
2023-03-07T21:26:37.097Z,72.55
2023-03-07T21:29:05.117Z,72.83
2023-03-07T21:31:54.216Z,73.07
2023-03-07T21:34:31.974Z,73.34
2023-03-07T21:37:21.018Z,73.22
2023-03-07T21:39:48.554Z,73.51
2023-03-07T21:42:15.979Z,73.94
2023-03-07T21:44:43.616Z,74.28
2023-03-07T21:47:13.138Z,74.50
2023-03-07T21:49:43.492Z,74.62
2023-03-07T21:52:20.977Z,74.58
2023-03-07T21:54:48.208Z,74.76
2023-03-07T21:57:25.448Z,75.05
2023-03-07T21:59:55.591Z,75.45
2023-03-07T22:02:25.760Z,75.66
2023-03-07T22:05:00.796Z,75.90
2023-03-07T22:07:28.257Z,75.98
2023-03-07T22:10:03.464Z,76.57
2023-03-07T22:12:50.988Z,76.96
2023-03-07T22:15:18.859Z,77.20
2023-03-07T22:17:56.355Z,76.60
2023-03-07T22:20:43.907Z,76.50
2023-03-07T22:23:13.874Z,76.60
2023-03-07T22:25:43.632Z,76.99
2023-03-07T22:28:11.138Z,77.03
2023-03-07T22:31:04.063Z,77.19
2023-03-07T22:33:50.475Z,76.16
2023-03-07T22:36:37.826Z,75.69
2023-03-07T22:39:25.952Z,75.81
2023-03-07T22:41:53.269Z,75.88
2023-03-07T22:44:31.898Z,75.91
2023-03-07T22:46:59.870Z,76.19
2023-03-07T22:49:37.290Z,76.08
2023-03-07T22:52:17.950Z,76.04
2023-03-07T22:55:06.417Z,76.00
2023-03-07T22:57:43.957Z,76.08
2023-03-07T23:00:14.110Z,76.45
2023-03-07T23:02:41.637Z,76.58
2023-03-07T23:05:21.832Z,76.83
2023-03-07T23:07:58.310Z,77.26
2023-03-07T23:10:37.288Z,77.46
2023-03-07T23:13:06.741Z,77.86
2023-03-07T23:15:40.138Z,77.90
2023-03-07T23:18:28.041Z,78.17
2023-03-07T23:20:58.396Z,78.27
2023-03-07T23:23:46.597Z,78.53
2023-03-07T23:26:27.215Z,78.59
2023-03-07T23:29:14.753Z,78.76
2023-03-07T23:32:04.064Z,79.17
2023-03-07T23:34:35.619Z,79.22
2023-03-07T23:37:06.608Z,79.17
2023-03-07T23:39:33.733Z,79.39
2023-03-07T23:42:03.378Z,79.44
2023-03-07T23:44:33.686Z,79.51
2023-03-07T23:47:11.045Z,79.55
2023-03-07T23:49:47.341Z,79.56
2023-03-07T23:52:18.065Z,79.70
2023-03-07T23:54:48.748Z,79.83
2023-03-07T23:57:36.140Z,79.79
